createdAt,value
2022-12-07T00:01:32.933Z,9.80
2022-12-07T00:04:06.049Z,9.57
2022-12-07T00:06:38.646Z,10.00
2022-12-07T00:09:07.369Z,9.30
2022-12-07T00:11:34.905Z,9.27
2022-12-07T00:14:04.367Z,8.48
2022-12-07T00:16:33.992Z,8.73
2022-12-07T00:19:01.718Z,8.20
2022-12-07T00:21:31.198Z,9.30
2022-12-07T00:23:59.148Z,9.15
2022-12-07T00:26:29.147Z,9.68
2022-12-07T00:29:02.479Z,9.40
2022-12-07T00:31:34.651Z,11.27
2022-12-07T00:34:02.278Z,9.85
2022-12-07T00:36:29.529Z,9.55
2022-12-07T00:38:58.566Z,8.38
2022-12-07T00:41:27.492Z,8.85
2022-12-07T00:43:55.046Z,8.20
2022-12-07T00:46:22.824Z,9.70
2022-12-07T00:48:51.224Z,7.28
2022-12-07T00:51:20.589Z,8.55
2022-12-07T00:53:47.772Z,9.17
2022-12-07T00:56:18.066Z,9.30
2022-12-07T01:01:12.606Z,7.95
2022-12-07T01:03:39.956Z,7.03
2022-12-07T01:06:07.265Z,7.53
2022-12-07T01:08:34.593Z,6.57
2022-12-07T01:11:08.947Z,8.27
2022-12-07T01:13:37.088Z,6.43
2022-12-07T01:16:06.589Z,7.28
2022-12-07T01:18:36.800Z,6.40
2022-12-07T01:21:05.734Z,5.78
2022-12-07T01:23:33.933Z,6.22
2022-12-07T01:26:03.830Z,5.65
2022-12-07T01:28:31.054Z,8.02
2022-12-07T01:30:59.032Z,6.35
2022-12-07T01:33:28.755Z,6.70
2022-12-07T01:35:56.288Z,7.45
2022-12-07T01:38:23.384Z,8.32
2022-12-07T01:40:55.958Z,6.82
2022-12-07T01:43:25.424Z,8.50
2022-12-07T01:45:52.770Z,8.65
2022-12-07T01:48:42.180Z,9.57
2022-12-07T01:51:15.377Z,9.63
2022-12-07T01:53:46.717Z,9.52
2022-12-07T01:56:20.122Z,12.63
2022-12-07T01:58:47.410Z,10.70
2022-12-07T02:01:14.995Z,14.23
2022-12-07T02:03:45.604Z,14.95
2022-12-07T02:06:19.275Z,15.50
2022-12-07T02:08:47.243Z,16.08
2022-12-07T02:11:14.555Z,17.13
2022-12-07T02:13:43.717Z,19.73
2022-12-07T02:16:22.593Z,17.38
2022-12-07T02:18:52.577Z,17.58
2022-12-07T02:21:31.272Z,18.25
2022-12-07T02:24:56.606Z,19.40
2022-12-07T02:27:38.063Z,19.30
2022-12-07T02:30:19.222Z,19.27
2022-12-07T02:32:52.254Z,17.65
2022-12-07T02:35:41.985Z,16.52
2022-12-07T02:38:16.032Z,16.50
2022-12-07T02:41:01.840Z,15.27
2022-12-07T02:43:33.054Z,16.70
2022-12-07T02:46:06.076Z,13.35
2022-12-07T02:48:34.969Z,14.27
2022-12-07T02:51:02.113Z,13.25
2022-12-07T02:53:35.476Z,13.98
2022-12-07T02:56:34.497Z,13.07
2022-12-07T02:59:09.657Z,13.30
2022-12-07T03:01:52.184Z,13.25
2022-12-07T03:04:40.258Z,14.65
2022-12-07T03:07:19.739Z,14.25
2022-12-07T03:09:58.833Z,14.32
2022-12-07T03:12:32.629Z,13.82
2022-12-07T03:15:21.381Z,13.45
2022-12-07T03:17:50.342Z,14.13
2022-12-07T03:20:21.517Z,14.27
2022-12-07T03:22:49.278Z,14.38
2022-12-07T03:25:18.513Z,12.68
2022-12-07T03:27:56.989Z,12.82
2022-12-07T03:30:41.286Z,13.25
2022-12-07T03:33:16.793Z,12.02
2022-12-07T03:35:53.032Z,11.77
2022-12-07T03:38:25.652Z,10.30
2022-12-07T03:41:01.963Z,9.32
2022-12-07T03:43:30.796Z,10.30
2022-12-07T03:46:06.973Z,9.10
2022-12-07T03:48:40.199Z,9.38
2022-12-07T03:51:21.660Z,8.48
2022-12-07T03:54:00.217Z,8.85
2022-12-07T03:56:30.013Z,8.50
2022-12-07T03:58:57.165Z,8.55
2022-12-07T04:01:25.364Z,8.55
2022-12-07T04:03:52.548Z,8.32
2022-12-07T04:06:19.572Z,9.13
2022-12-07T04:08:46.751Z,9.13
2022-12-07T04:11:13.871Z,8.75
2022-12-07T04:13:59.398Z,8.90
2022-12-07T04:16:26.539Z,9.02
2022-12-07T04:18:53.727Z,8.93
2022-12-07T04:21:20.676Z,8.35
2022-12-07T04:23:47.675Z,8.80
2022-12-07T04:26:14.663Z,9.07
2022-12-07T04:28:41.732Z,9.10
2022-12-07T04:31:08.916Z,9.75
2022-12-07T04:33:36.715Z,10.15
2022-12-07T04:36:04.067Z,9.77
2022-12-07T04:38:31.024Z,9.52
2022-12-07T04:40:58.007Z,10.30
2022-12-07T04:43:25.023Z,9.38
2022-12-07T04:45:52.395Z,10.65
2022-12-07T04:48:19.490Z,10.68
2022-12-07T04:50:50.828Z,9.90
2022-12-07T04:53:18.008Z,10.02
2022-12-07T04:55:46.155Z,10.50
2022-12-07T04:58:14.178Z,10.38
2022-12-07T05:00:41.577Z,9.90
2022-12-07T05:03:08.793Z,10.38
2022-12-07T05:05:35.871Z,10.68
2022-12-07T05:08:02.956Z,10.45
2022-12-07T05:10:30.025Z,10.40
2022-12-07T05:12:57.067Z,9.38
2022-12-07T05:15:24.168Z,10.10
2022-12-07T05:17:53.398Z,10.43
2022-12-07T05:20:20.480Z,9.73
2022-12-07T05:22:47.469Z,9.38
2022-12-07T05:25:14.580Z,9.95
2022-12-07T05:27:41.592Z,10.10
2022-12-07T05:30:09.161Z,10.70
2022-12-07T05:32:36.191Z,9.55
2022-12-07T05:35:03.211Z,9.88
2022-12-07T05:37:30.290Z,9.73
2022-12-07T05:39:57.402Z,9.23
2022-12-07T05:42:24.588Z,8.80
2022-12-07T05:44:51.598Z,8.90
2022-12-07T05:47:18.650Z,8.90
2022-12-07T05:49:45.770Z,8.27
2022-12-07T05:52:12.940Z,8.13
2022-12-07T05:54:39.968Z,9.43
2022-12-07T05:57:07.010Z,9.73
2022-12-07T05:59:34.182Z,8.93
2022-12-07T06:02:04.612Z,11.23
2022-12-07T06:04:35.268Z,9.63
2022-12-07T06:07:02.763Z,10.05
2022-12-07T06:09:30.089Z,8.95
2022-12-07T06:12:16.579Z,10.23
2022-12-07T06:14:44.026Z,10.65
2022-12-07T06:17:11.699Z,9.90
2022-12-07T06:19:39.204Z,9.82
2022-12-07T06:22:06.597Z,9.95
2022-12-07T06:24:34.679Z,9.88
2022-12-07T06:27:01.693Z,10.52
2022-12-07T06:29:28.729Z,10.73
2022-12-07T06:31:55.775Z,11.95
2022-12-07T06:34:24.008Z,12.07
2022-12-07T06:36:54.567Z,12.98
2022-12-07T06:39:27.170Z,11.85
2022-12-07T06:41:55.119Z,11.75
2022-12-07T06:44:23.620Z,12.07
2022-12-07T06:46:52.058Z,10.90
2022-12-07T06:49:19.192Z,11.35
2022-12-07T06:51:46.267Z,10.18
2022-12-07T06:54:14.948Z,9.88
2022-12-07T06:56:42.029Z,9.80
2022-12-07T06:59:09.146Z,9.50
2022-12-07T07:01:36.836Z,9.35
2022-12-07T07:04:04.429Z,9.57
2022-12-07T07:06:31.468Z,9.88
2022-12-07T07:08:58.759Z,13.57
2022-12-07T07:11:25.858Z,10.18
2022-12-07T07:13:52.870Z,11.65
2022-12-07T07:16:19.919Z,11.02
2022-12-07T07:18:46.962Z,10.30
2022-12-07T07:21:14.086Z,10.20
2022-12-07T07:23:41.219Z,10.45
2022-12-07T07:26:08.290Z,11.15
2022-12-07T07:28:35.329Z,10.30
2022-12-07T07:31:02.592Z,10.23
2022-12-07T07:33:29.725Z,10.10
2022-12-07T07:35:56.788Z,9.75
2022-12-07T07:38:23.799Z,10.32
2022-12-07T07:40:51.080Z,10.05
2022-12-07T07:43:18.155Z,10.25
2022-12-07T07:45:45.932Z,10.20
2022-12-07T07:48:13.104Z,10.90
2022-12-07T07:50:40.371Z,10.48
2022-12-07T07:53:07.412Z,10.45
2022-12-07T07:55:34.425Z,10.35
2022-12-07T07:58:01.483Z,10.35
2022-12-07T08:00:28.560Z,10.00
2022-12-07T08:02:55.702Z,10.10
2022-12-07T08:05:22.979Z,11.13
2022-12-07T08:07:50.173Z,10.13
2022-12-07T08:10:17.269Z,12.57
2022-12-07T08:13:03.349Z,10.95
2022-12-07T08:15:32.033Z,10.30
2022-12-07T08:17:59.492Z,10.68
2022-12-07T08:20:26.640Z,10.57
2022-12-07T08:22:53.839Z,10.57
2022-12-07T08:25:21.948Z,10.45
2022-12-07T08:27:49.503Z,10.20
2022-12-07T08:30:16.859Z,9.30
2022-12-07T08:32:46.461Z,10.10
2022-12-07T08:35:14.188Z,9.77
2022-12-07T08:37:41.804Z,8.77
2022-12-07T08:40:10.843Z,9.52
2022-12-07T08:42:41.508Z,9.82
2022-12-07T08:45:11.478Z,10.00
2022-12-07T08:47:43.169Z,9.23
2022-12-07T08:50:12.688Z,9.18
2022-12-07T08:52:42.259Z,10.73
2022-12-07T08:55:12.367Z,9.25
2022-12-07T08:57:40.569Z,9.68
2022-12-07T09:00:08.821Z,9.50
2022-12-07T09:02:36.271Z,10.07
2022-12-07T09:05:03.451Z,9.55
2022-12-07T09:07:32.641Z,10.55
2022-12-07T09:09:59.787Z,10.38
2022-12-07T09:12:27.093Z,9.55
2022-12-07T09:14:54.206Z,11.18
2022-12-07T09:17:21.281Z,9.55
2022-12-07T09:19:48.281Z,11.80
2022-12-07T09:22:15.342Z,12.05
2022-12-07T09:24:42.361Z,12.20
2022-12-07T09:27:09.499Z,12.18
2022-12-07T09:29:36.527Z,12.13
2022-12-07T09:32:09.896Z,11.68
2022-12-07T09:34:38.665Z,12.40
2022-12-07T09:37:05.934Z,11.93
2022-12-07T09:39:33.106Z,10.80
2022-12-07T09:42:03.925Z,10.20
2022-12-07T09:44:31.067Z,10.30
2022-12-07T09:46:58.926Z,11.10
2022-12-07T09:49:29.548Z,10.52
2022-12-07T09:52:08.991Z,10.55
2022-12-07T09:54:45.027Z,10.98
2022-12-07T09:57:13.726Z,11.15
2022-12-07T09:59:44.089Z,11.63
2022-12-07T10:02:37.508Z,11.25
2022-12-07T10:05:11.993Z,11.38
2022-12-07T10:07:39.258Z,12.18
2022-12-07T10:10:15.698Z,12.38
2022-12-07T10:13:05.997Z,11.45
2022-12-07T10:18:39.060Z,10.65
2022-12-07T10:21:21.871Z,11.95
2022-12-07T10:24:04.126Z,11.05
2022-12-07T10:26:52.445Z,10.95
2022-12-07T10:29:40.365Z,11.27
2022-12-07T10:32:16.194Z,10.35
2022-12-07T10:34:48.789Z,9.10
2022-12-07T10:37:21.568Z,8.73
2022-12-07T10:39:49.788Z,8.40
2022-12-07T10:42:28.108Z,8.13
2022-12-07T10:45:16.624Z,8.82
2022-12-07T10:47:49.532Z,7.40
2022-12-07T10:50:31.477Z,8.43
2022-12-07T10:53:26.146Z,7.20
2022-12-07T10:56:19.269Z,7.97
2022-12-07T10:59:03.006Z,7.88
2022-12-07T11:01:47.673Z,8.27
2022-12-07T11:04:36.538Z,8.40
2022-12-07T11:07:09.527Z,9.98
2022-12-07T11:10:06.882Z,9.05
2022-12-07T11:13:05.020Z,9.52
2022-12-07T11:15:43.803Z,9.98
2022-12-07T11:18:29.998Z,11.52
2022-12-07T11:21:16.278Z,11.88
2022-12-07T11:24:01.337Z,10.70
2022-12-07T11:26:59.257Z,12.00
2022-12-07T11:29:56.243Z,11.98
2022-12-07T11:32:45.840Z,11.38
2022-12-07T11:35:29.390Z,12.80
2022-12-07T11:38:00.869Z,12.65
2022-12-07T11:40:31.990Z,13.00
2022-12-07T11:43:33.249Z,13.82
2022-12-07T11:46:05.949Z,13.68
2022-12-07T11:48:59.557Z,13.35
2022-12-07T11:51:33.177Z,14.07
2022-12-07T11:54:04.857Z,15.27
2022-12-07T11:56:37.898Z,14.15
2022-12-07T11:59:20.579Z,14.57
2022-12-07T12:01:54.837Z,14.23
2022-12-07T12:04:56.879Z,14.98
2022-12-07T12:10:31.178Z,14.52
2022-12-07T12:16:35.840Z,15.57
2022-12-07T12:19:16.078Z,15.25
2022-12-07T12:21:43.937Z,14.70
2022-12-07T12:24:20.030Z,13.35
2022-12-07T12:26:54.189Z,14.25
2022-12-07T12:29:29.631Z,15.10
2022-12-07T12:32:22.207Z,14.38
2022-12-07T12:34:50.843Z,13.20
2022-12-07T12:37:36.525Z,13.30
2022-12-07T12:40:15.506Z,14.02
2022-12-07T12:42:54.356Z,13.05
2022-12-07T12:45:26.509Z,14.52
2022-12-07T12:48:39.164Z,12.65
2022-12-07T12:51:41.148Z,10.98
2022-12-07T12:54:22.897Z,12.90
2022-12-07T12:57:16.700Z,14.75
2022-12-07T12:59:52.600Z,11.90
2022-12-07T13:02:31.505Z,12.07
2022-12-07T13:05:08.850Z,12.60
2022-12-07T13:07:48.229Z,12.93
2022-12-07T13:10:24.473Z,11.60
2022-12-07T13:13:31.087Z,10.45
2022-12-07T13:16:10.229Z,10.20
2022-12-07T13:18:40.503Z,10.70
2022-12-07T13:23:46.255Z,10.65
2022-12-07T13:26:35.768Z,10.25
2022-12-07T13:29:21.377Z,9.10
2022-12-07T13:31:51.303Z,9.52
2022-12-07T13:34:35.058Z,10.48
2022-12-07T13:37:27.394Z,9.10
2022-12-07T13:39:58.060Z,9.07
2022-12-07T13:42:36.072Z,9.45
2022-12-07T13:45:44.557Z,9.75
2022-12-07T13:48:48.719Z,8.95
2022-12-07T13:51:38.032Z,9.23
2022-12-07T13:54:23.566Z,9.27
2022-12-07T13:56:53.178Z,11.55
2022-12-07T13:59:24.045Z,10.40
2022-12-07T14:01:53.208Z,12.95
2022-12-07T14:04:37.705Z,11.15
2022-12-07T14:07:28.759Z,9.98
2022-12-07T14:10:07.516Z,10.52
2022-12-07T14:12:38.038Z,10.48
2022-12-07T14:15:07.240Z,9.65
2022-12-07T14:17:34.218Z,10.63
2022-12-07T14:20:03.379Z,12.77
2022-12-07T14:22:37.425Z,11.00
2022-12-07T14:25:27.997Z,10.10
2022-12-07T14:28:01.603Z,9.82
2022-12-07T14:30:35.286Z,8.75
2022-12-07T14:33:04.828Z,9.43
2022-12-07T14:35:33.221Z,8.57
2022-12-07T14:38:00.309Z,10.15
2022-12-07T14:40:29.749Z,10.55
2022-12-07T14:43:10.326Z,8.55
2022-12-07T14:45:37.356Z,9.05
2022-12-07T14:53:47.531Z,10.87
2022-12-07T14:56:17.179Z,9.63
2022-12-07T14:58:44.389Z,10.77
2022-12-07T15:01:11.483Z,10.00
2022-12-07T15:03:39.876Z,10.57
2022-12-07T15:06:08.160Z,11.30
2022-12-07T15:08:35.410Z,10.43
2022-12-07T15:11:02.420Z,11.63
2022-12-07T15:13:48.366Z,12.13
2022-12-07T15:16:21.074Z,10.38
2022-12-07T15:19:04.828Z,12.02
2022-12-07T15:21:35.307Z,9.60
2022-12-07T15:24:02.400Z,10.23
2022-12-07T15:26:29.598Z,10.38
2022-12-07T15:28:56.754Z,9.23
2022-12-07T15:31:54.011Z,9.77
2022-12-07T15:34:11.174Z,8.50
2022-12-07T15:36:38.442Z,10.45
2022-12-07T15:39:14.463Z,10.20
2022-12-07T15:41:42.078Z,9.50
2022-12-07T15:44:31.780Z,9.57
2022-12-07T15:46:58.968Z,10.13
2022-12-07T15:49:26.565Z,9.25
2022-12-07T15:51:53.635Z,11.40
2022-12-07T15:54:26.435Z,10.48
2022-12-07T15:56:53.858Z,9.88
2022-12-07T15:59:20.944Z,10.63
2022-12-07T16:01:48.015Z,9.65
2022-12-07T16:04:15.402Z,11.13
2022-12-07T16:06:42.545Z,9.65
2022-12-07T16:09:10.062Z,10.63
2022-12-07T16:11:37.466Z,10.07
2022-12-07T16:14:04.625Z,11.13
2022-12-07T16:16:32.120Z,9.95
2022-12-07T16:18:59.862Z,10.40
2022-12-07T16:21:26.900Z,10.40
2022-12-07T16:23:54.345Z,12.43
2022-12-07T16:26:22.981Z,10.10
2022-12-07T16:28:51.626Z,10.50
2022-12-07T16:31:21.262Z,10.77
2022-12-07T16:33:50.315Z,10.60
2022-12-07T16:36:33.952Z,11.45
2022-12-07T16:39:06.242Z,10.15
2022-12-07T16:41:33.556Z,9.30
2022-12-07T16:44:06.108Z,10.27
2022-12-07T16:46:35.220Z,9.82
2022-12-07T16:49:02.390Z,10.80
2022-12-07T16:51:30.019Z,9.63
2022-12-07T16:53:57.270Z,9.30
2022-12-07T16:56:24.539Z,8.85
2022-12-07T16:58:51.824Z,8.65
2022-12-07T17:01:23.035Z,8.88
2022-12-07T17:03:50.919Z,7.90
2022-12-07T17:06:21.352Z,8.32
2022-12-07T17:08:49.583Z,7.38
2022-12-07T17:11:23.549Z,5.82
2022-12-07T17:14:09.491Z,6.30
2022-12-07T17:16:37.092Z,5.55
2022-12-07T17:19:08.824Z,5.60
2022-12-07T17:21:36.593Z,6.20
2022-12-07T17:24:06.308Z,6.45
2022-12-07T17:26:35.679Z,5.82
2022-12-07T17:29:04.513Z,5.07
2022-12-07T17:31:33.509Z,5.40
2022-12-07T17:34:01.060Z,5.90
2022-12-07T17:36:33.341Z,4.90
2022-12-07T17:39:00.479Z,4.38
2022-12-07T17:41:47.749Z,4.68
2022-12-07T17:44:17.787Z,4.63
2022-12-07T17:46:46.211Z,4.60
2022-12-07T17:49:13.340Z,3.88
2022-12-07T17:51:58.789Z,4.20
2022-12-07T17:54:26.212Z,4.10
2022-12-07T17:56:53.392Z,4.15
2022-12-07T17:59:20.487Z,4.72
2022-12-07T18:01:47.782Z,3.90
2022-12-07T18:04:14.900Z,4.00
2022-12-07T18:06:44.204Z,4.22
2022-12-07T18:09:13.449Z,4.03
2022-12-07T18:11:40.595Z,4.82
2022-12-07T18:14:07.693Z,4.43
2022-12-07T18:16:35.802Z,4.28
2022-12-07T18:19:05.509Z,4.30
2022-12-07T18:21:33.214Z,4.65
2022-12-07T18:24:03.144Z,5.05
2022-12-07T18:26:32.492Z,4.93
2022-12-07T18:29:01.101Z,5.13
2022-12-07T18:31:29.651Z,5.03
2022-12-07T18:34:00.650Z,4.65
2022-12-07T18:36:27.700Z,5.13
2022-12-07T18:38:54.762Z,4.80
2022-12-07T18:41:21.955Z,4.68
2022-12-07T18:43:49.050Z,4.53
2022-12-07T18:46:21.259Z,4.95
2022-12-07T18:48:50.587Z,4.90
2022-12-07T18:51:19.506Z,4.33
2022-12-07T18:53:47.145Z,3.88
2022-12-07T18:56:20.063Z,3.75
2022-12-07T18:59:20.408Z,4.68
2022-12-07T19:01:51.787Z,4.90
2022-12-07T19:04:19.340Z,4.80
2022-12-07T19:06:48.059Z,5.65
2022-12-07T19:09:16.252Z,5.60
2022-12-07T19:11:49.692Z,4.90
2022-12-07T19:14:28.793Z,5.30
2022-12-07T19:17:02.973Z,5.32
2022-12-07T19:19:34.786Z,4.18
2022-12-07T19:22:02.641Z,4.60
2022-12-07T19:24:30.512Z,4.82
2022-12-07T19:26:58.384Z,4.40
2022-12-07T19:29:28.301Z,4.70
2022-12-07T19:31:55.564Z,4.63
2022-12-07T19:34:22.926Z,4.57
2022-12-07T19:36:50.202Z,4.97
2022-12-07T19:39:17.340Z,4.80
2022-12-07T19:41:45.297Z,5.13
2022-12-07T19:44:20.139Z,6.15
2022-12-07T19:46:52.647Z,6.60
2022-12-07T19:49:21.501Z,6.40
2022-12-07T19:51:53.852Z,6.82
2022-12-07T19:54:23.738Z,5.68
2022-12-07T19:56:51.987Z,5.68
2022-12-07T19:59:21.540Z,5.85
2022-12-07T20:01:49.553Z,5.88
2022-12-07T20:04:22.509Z,5.90
2022-12-07T20:06:52.859Z,5.78
2022-12-07T20:09:20.816Z,5.13
2022-12-07T20:12:06.382Z,5.75
2022-12-07T20:14:33.792Z,6.32
2022-12-07T20:17:01.037Z,6.32
2022-12-07T20:19:28.702Z,6.75
2022-12-07T20:21:56.107Z,5.93
2022-12-07T20:24:25.104Z,7.85
2022-12-07T20:26:54.140Z,7.35
2022-12-07T20:29:24.213Z,7.45
2022-12-07T20:31:53.597Z,7.28
2022-12-07T20:34:20.847Z,7.85
2022-12-07T20:36:48.001Z,8.00
2022-12-07T20:39:15.505Z,6.50
2022-12-07T20:42:01.260Z,6.95
2022-12-07T20:44:28.622Z,6.68
2022-12-07T20:46:55.830Z,5.80
2022-12-07T20:49:23.238Z,6.60
2022-12-07T20:51:51.627Z,6.30
2022-12-07T20:54:18.940Z,6.82
2022-12-07T20:56:46.090Z,6.82
2022-12-07T20:59:15.470Z,6.13
2022-12-07T21:01:43.407Z,6.65
2022-12-07T21:04:12.480Z,7.72
2022-12-07T21:06:39.905Z,6.25
2022-12-07T21:09:07.057Z,4.75
2022-12-07T21:11:34.309Z,5.80
2022-12-07T21:14:01.907Z,6.53
2022-12-07T21:16:30.952Z,5.18
2022-12-07T21:19:02.821Z,6.72
2022-12-07T21:21:31.358Z,5.70
2022-12-07T21:24:02.478Z,4.75
2022-12-07T21:26:34.033Z,4.60
2022-12-07T21:29:02.696Z,5.35
2022-12-07T21:31:30.191Z,4.60
2022-12-07T21:33:57.509Z,4.75
2022-12-07T21:36:26.651Z,3.50
2022-12-07T21:38:54.307Z,3.58
2022-12-07T21:41:30.100Z,4.35
2022-12-07T21:43:57.621Z,3.47
2022-12-07T21:46:32.959Z,4.40
2022-12-07T21:49:04.869Z,3.92
2022-12-07T21:51:32.761Z,3.97
2022-12-07T21:54:01.344Z,3.55
2022-12-07T21:56:34.062Z,3.80
2022-12-07T21:59:06.635Z,4.10
2022-12-07T22:01:38.195Z,3.80
2022-12-07T22:04:11.393Z,3.97
2022-12-07T22:06:38.554Z,4.10
2022-12-07T22:09:06.975Z,3.75
2022-12-07T22:11:34.781Z,3.60
2022-12-07T22:14:21.971Z,3.00
2022-12-07T22:16:49.261Z,3.55
2022-12-07T22:19:16.437Z,2.97
2022-12-07T22:21:43.516Z,3.15
2022-12-07T22:24:14.076Z,2.63
2022-12-07T22:26:43.039Z,3.35
2022-12-07T22:29:10.657Z,2.92
2022-12-07T22:31:38.583Z,2.70
2022-12-07T22:34:06.067Z,3.10
2022-12-07T22:36:33.340Z,2.70
2022-12-07T22:39:01.454Z,3.17
2022-12-07T22:41:31.069Z,3.13
2022-12-07T22:43:59.120Z,3.50
2022-12-07T22:46:27.385Z,3.33
2022-12-07T22:48:54.688Z,2.90
2022-12-07T22:51:30.691Z,3.13
2022-12-07T22:54:02.768Z,2.85
2022-12-07T22:56:31.451Z,2.67
2022-12-07T22:58:58.499Z,2.58
2022-12-07T23:01:25.500Z,2.75
2022-12-07T23:03:53.299Z,2.53
2022-12-07T23:06:24.367Z,2.85
2022-12-07T23:08:52.132Z,2.80
2022-12-07T23:11:40.575Z,2.33
2022-12-07T23:14:36.067Z,2.50
2022-12-07T23:17:04.378Z,2.55
2022-12-07T23:19:31.736Z,2.83
2022-12-07T23:21:58.805Z,2.67
2022-12-07T23:24:26.336Z,2.42
2022-12-07T23:26:53.368Z,3.03
2022-12-07T23:29:20.506Z,2.30
2022-12-07T23:31:48.408Z,2.72
2022-12-07T23:34:15.933Z,2.50
2022-12-07T23:36:42.904Z,3.75
2022-12-07T23:39:10.181Z,2.45
2022-12-07T23:41:37.213Z,2.80
2022-12-07T23:44:04.317Z,2.70
2022-12-07T23:46:32.958Z,2.60
2022-12-07T23:49:01.806Z,2.85
2022-12-07T23:51:29.084Z,2.70
2022-12-07T23:53:56.122Z,2.45
2022-12-07T23:56:26.469Z,2.67
2022-12-07T23:58:54.976Z,2.65
